Time;durP1;ratioP1;P1;durP2;ratioP2;P2;SDS_P1;SDS_P2;PMS_P1;PMS_P2;Temp;Humidity;BMP_temperature;BMP_pressure;BME280_temperature;BME280_humidity;BME280_pressure;Samples;Min_cycle;Max_cycle;Signal;HPM_P1;HPM_P2
2022/04/03 00:02:32;;;;;;;9.50;8.80;;;4.60;43.80;;;;;;10352489;28;20238;-73
2022/04/03 00:07:35;;;;;;;10.90;10.00;;;4.60;43.80;;;;;;10347295;28;20245;-72
2022/04/03 00:12:40;;;;;;;11.80;10.70;;;4.60;43.80;;;;;;10344316;28;20230;-73
2022/04/03 00:17:45;;;;;;;11.50;10.50;;;4.50;44.00;;;;;;10352050;28;20238;-72
2022/04/03 00:22:49;;;;;;;10.60;9.70;;;4.50;44.00;;;;;;10355225;28;20242;-72
2022/04/03 00:27:54;;;;;;;11.43;10.30;;;4.40;44.00;;;;;;10347491;28;20223;-73
2022/04/03 00:32:57;;;;;;;11.80;10.70;;;4.30;44.20;;;;;;10354017;28;20227;-73
2022/04/03 00:38:00;;;;;;;10.60;9.60;;;4.30;44.20;;;;;;10347496;28;20242;-73
2022/04/03 00:43:05;;;;;;;10.70;9.80;;;4.30;44.30;;;;;;10353555;28;20226;-74
2022/04/03 00:48:08;;;;;;;10.00;9.20;;;4.30;44.40;;;;;;10346021;28;20230;-73
2022/04/03 00:53:17;;;;;;;10.20;9.40;;;4.30;44.40;;;;;;10355952;28;20225;-73
2022/04/03 00:58:23;;;;;;;9.57;8.77;;;4.20;44.30;;;;;;10345205;28;20226;-73
2022/04/03 01:03:26;;;;;;;9.07;8.33;;;4.20;44.50;;;;;;10344364;28;21093;-74
2022/04/03 01:08:29;;;;;;;10.07;9.20;;;4.20;44.20;;;;;;10349154;28;20256;-74
2022/04/03 01:13:34;;;;;;;10.07;9.07;;;4.20;44.30;;;;;;10345088;28;20222;-74
2022/04/03 01:18:37;;;;;;;9.67;8.80;;;4.20;44.50;;;;;;10350011;28;20651;-73
2022/04/03 01:23:40;;;;;;;9.57;8.77;;;4.20;44.30;;;;;;10346056;28;20237;-73
2022/04/03 01:28:45;;;;;;;9.03;8.33;;;4.20;44.30;;;;;;10348678;28;20337;-74
2022/04/03 01:33:48;;;;;;;9.80;9.00;;;4.20;44.50;;;;;;10346165;28;20219;-73
2022/04/03 01:38:51;;;;;;;9.43;8.63;;;4.20;44.50;;;;;;10345599;28;20241;-73
2022/04/03 01:43:56;;;;;;;9.60;8.77;;;4.20;44.50;;;;;;10343074;28;20599;-73
2022/04/03 01:48:59;;;;;;;9.33;8.50;;;4.10;44.60;;;;;;10340396;28;20231;-73
2022/04/03 01:54:03;;;;;;;9.03;8.23;;;4.10;44.50;;;;;;10345450;28;20230;-73
2022/04/03 01:59:08;;;;;;;9.33;8.53;;;4.20;44.50;;;;;;10345875;28;20254;-73
2022/04/03 02:04:12;;;;;;;9.70;8.80;;;4.20;44.60;;;;;;10344575;28;20229;-73
2022/04/03 02:09:15;;;;;;;8.97;8.20;;;4.10;44.40;;;;;;10341923;28;20606;-73
2022/04/03 02:14:24;;;;;;;8.30;7.60;;;4.20;44.40;;;;;;10346317;28;20600;-74
2022/04/03 02:19:28;;;;;;;7.73;7.13;;;4.20;44.30;;;;;;10346783;28;20254;-73
2022/04/03 02:24:31;;;;;;;8.53;7.83;;;4.20;44.20;;;;;;10342585;28;20230;-73
2022/04/03 02:29:36;;;;;;;8.90;8.20;;;4.20;44.30;;;;;;10346269;28;20238;-73
2022/04/03 02:34:39;;;;;;;8.47;7.77;;;4.20;44.10;;;;;;10342035;28;20230;-74
2022/04/03 02:39:46;;;;;;;7.87;7.20;;;4.30;44.10;;;;;;10340693;28;20326;-74
2022/04/03 02:44:51;;;;;;;8.17;7.47;;;4.30;44.70;;;;;;10339246;28;20226;-74
2022/04/03 02:49:54;;;;;;;7.93;7.23;;;4.30;43.90;;;;;;10343289;28;20234;-74
2022/04/03 02:54:58;;;;;;;7.97;7.17;;;4.30;43.80;;;;;;10343785;28;20246;-74
2022/04/03 03:00:03;;;;;;;7.20;6.57;;;4.20;43.70;;;;;;10345906;28;20235;-73
2022/04/03 03:05:07;;;;;;;7.43;6.83;;;4.20;43.70;;;;;;10352936;28;20230;-73
2022/04/03 03:10:13;;;;;;;6.83;6.23;;;4.30;43.80;;;;;;10351857;28;20230;-73
2022/04/03 03:15:18;;;;;;;7.43;6.83;;;4.30;43.90;;;;;;10351051;28;20253;-74
2022/04/03 03:20:22;;;;;;;7.27;6.67;;;4.30;43.80;;;;;;10345360;28;20245;-73
2022/04/03 03:25:25;;;;;;;7.73;7.03;;;4.30;43.70;;;;;;10350234;28;20691;-73
2022/04/03 03:30:30;;;;;;;8.63;7.93;;;4.40;43.80;;;;;;10351985;28;20727;-74
2022/04/03 03:35:33;;;;;;;8.80;8.00;;;4.40;43.80;;;;;;10348580;28;20218;-74
2022/04/03 03:40:39;;;;;;;8.20;7.60;;;4.40;43.60;;;;;;10347561;28;20636;-73
2022/04/03 03:45:43;;;;;;;8.87;7.43;;;4.40;43.60;;;;;;10351281;28;20548;-74
2022/04/03 03:50:47;;;;;;;8.20;7.50;;;4.50;43.60;;;;;;10353549;28;20692;-74
2022/04/03 03:55:50;;;;;;;8.40;7.70;;;4.50;43.40;;;;;;10346082;28;20234;-74
2022/04/03 04:00:54;;;;;;;8.20;7.57;;;4.40;43.30;;;;;;10351471;28;20235;-74
2022/04/03 04:05:58;;;;;;;8.57;7.87;;;4.40;43.40;;;;;;10348612;28;20367;-73
2022/04/03 04:11:01;;;;;;;7.93;7.23;;;4.30;43.20;;;;;;10346160;28;20265;-73
2022/04/03 04:16:10;;;;;;;8.20;7.57;;;4.30;43.30;;;;;;10348568;28;20237;-73
2022/04/03 04:21:15;;;;;;;8.70;7.90;;;4.30;43.60;;;;;;10352097;28;20934;-73
2022/04/03 04:26:18;;;;;;;8.20;7.60;;;4.30;43.60;;;;;;10346184;28;20222;-73
2022/04/03 04:31:23;;;;;;;8.00;7.40;;;4.30;43.60;;;;;;10355098;28;20234;-73
2022/04/03 04:36:27;;;;;;;7.57;6.97;;;4.30;43.60;;;;;;10341345;28;20227;-74
2022/04/03 04:41:35;;;;;;;9.37;8.47;;;4.30;43.50;;;;;;10346655;28;20389;-73
2022/04/03 04:46:39;;;;;;;8.27;7.57;;;4.30;43.50;;;;;;10344198;28;20227;-73
2022/04/03 04:51:42;;;;;;;7.97;7.37;;;4.30;43.60;;;;;;10349595;28;20230;-73
2022/04/03 04:56:45;;;;;;;8.40;7.63;;;4.30;43.50;;;;;;10344891;28;20581;-73
2022/04/03 05:01:56;;;;;;;8.70;7.90;;;4.30;43.50;;;;;;10349392;28;20676;-73
2022/04/03 05:06:59;;;;;;;7.67;6.67;;;4.40;43.60;;;;;;10347559;28;20239;-73
2022/04/03 05:12:03;;;;;;;8.30;7.57;;;4.30;43.50;;;;;;10342544;28;20602;-73
2022/04/03 05:17:08;;;;;;;9.30;8.50;;;4.30;43.60;;;;;;10347026;28;20607;-73
2022/04/03 05:22:11;;;;;;;8.07;7.47;;;4.30;43.60;;;;;;10345178;28;20249;-73
2022/04/03 05:27:15;;;;;;;8.23;7.43;;;4.40;43.70;;;;;;10344267;28;20301;-73
2022/04/03 05:32:27;;;;;;;8.73;8.03;;;4.40;43.80;;;;;;10348629;28;20226;-73
2022/04/03 05:37:30;;;;;;;9.03;8.23;;;4.40;43.80;;;;;;10349827;28;20233;-73
2022/04/03 05:42:35;;;;;;;9.00;8.30;;;4.40;43.50;;;;;;10342423;28;20237;-73
2022/04/03 05:47:40;;;;;;;8.57;7.83;;;4.40;43.50;;;;;;10346801;28;20615;-73
2022/04/03 05:52:47;;;;;;;8.97;8.17;;;4.40;43.70;;;;;;10351413;28;20291;-73
2022/04/03 05:57:52;;;;;;;8.60;7.90;;;4.40;43.50;;;;;;10348609;28;20313;-73
2022/04/03 06:02:58;;;;;;;9.07;8.27;;;4.40;43.50;;;;;;10344629;28;20233;-73
2022/04/03 06:08:02;;;;;;;8.27;7.57;;;4.40;43.60;;;;;;10341929;28;20736;-73
2022/04/03 06:13:06;;;;;;;8.60;7.90;;;4.30;43.30;;;;;;10342506;28;20285;-73
2022/04/03 06:18:12;;;;;;;9.17;8.27;;;4.30;43.60;;;;;;10342770;28;20306;-73
2022/04/03 06:23:18;;;;;;;8.67;7.87;;;4.40;43.70;;;;;;10342843;28;20277;-73
2022/04/03 06:28:21;;;;;;;7.77;7.17;;;4.30;43.70;;;;;;10339261;28;20234;-73
2022/04/03 06:33:27;;;;;;;7.47;6.77;;;4.30;43.60;;;;;;10344037;28;20243;-74
2022/04/03 06:38:30;;;;;;;7.30;6.57;;;4.30;43.40;;;;;;10344108;28;20600;-73
2022/04/03 06:43:34;;;;;;;7.40;6.70;;;4.20;44.10;;;;;;10346301;28;20595;-73
2022/04/03 06:48:39;;;;;;;7.00;6.37;;;4.20;43.60;;;;;;10345179;28;20246;-73
2022/04/03 06:53:42;;;;;;;6.33;5.77;;;4.20;43.70;;;;;;10342434;28;20708;-73
2022/04/03 06:58:45;;;;;;;6.23;5.63;;;4.20;43.60;;;;;;10341344;28;20707;-73
2022/04/03 07:03:50;;;;;;;5.63;5.03;;;4.30;43.60;;;;;;10343106;28;20222;-73
2022/04/03 07:08:53;;;;;;;6.00;5.50;;;4.40;43.50;;;;;;10338762;28;20249;-73
2022/04/03 07:13:56;;;;;;;6.00;5.37;;;4.50;43.20;;;;;;10346361;28;20741;-73
2022/04/03 07:19:01;;;;;;;5.87;5.30;;;4.60;43.10;;;;;;10343317;28;20230;-73
2022/04/03 07:24:05;;;;;;;5.30;4.73;;;4.50;42.60;;;;;;10345270;28;20615;-73
2022/04/03 07:29:09;;;;;;;5.47;4.97;;;4.60;42.90;;;;;;10339612;28;20309;-73
2022/04/03 07:34:14;;;;;;;5.20;4.80;;;4.70;42.80;;;;;;10340035;28;20718;-72
2022/04/03 07:39:17;;;;;;;5.50;5.00;;;4.80;42.60;;;;;;10337155;28;20677;-73
2022/04/03 07:44:20;;;;;;;4.77;4.33;;;4.80;42.50;;;;;;10346425;28;20222;-73
2022/04/03 07:49:25;;;;;;;5.00;4.57;;;4.80;42.40;;;;;;10347036;28;20240;-73
2022/04/03 07:54:29;;;;;;;5.63;4.60;;;4.80;42.10;;;;;;10351594;28;20233;-73
2022/04/03 07:59:32;;;;;;;4.93;4.33;;;4.80;42.10;;;;;;10351682;28;20235;-72
2022/04/03 08:04:36;;;;;;;6.90;4.40;;;4.80;42.40;;;;;;10346934;28;20241;-73
2022/04/03 08:09:40;;;;;;;4.80;4.40;;;4.80;41.40;;;;;;10349156;28;20656;-73
2022/04/03 08:14:43;;;;;;;5.33;4.83;;;4.70;41.20;;;;;;10350200;28;20222;-72
2022/04/03 08:19:47;;;;;;;4.90;4.50;;;4.70;41.10;;;;;;10350310;28;20853;-73
2022/04/03 08:24:50;;;;;;;5.73;4.60;;;4.60;41.00;;;;;;10343125;28;20226;-73
2022/04/03 08:29:54;;;;;;;4.73;4.33;;;4.50;41.50;;;;;;10343590;28;20238;-72
2022/04/03 08:34:58;;;;;;;4.30;3.90;;;4.60;42.00;;;;;;10342836;28;20247;-72
2022/04/03 08:40:03;;;;;;;4.63;4.23;;;4.70;41.80;;;;;;10337760;28;20230;-72
2022/04/03 08:45:11;;;;;;;5.70;4.73;;;4.70;42.50;;;;;;10344936;28;20321;-72
2022/04/03 08:50:17;;;;;;;4.97;4.40;;;4.80;41.70;;;;;;10346184;28;20233;-72
2022/04/03 08:55:21;;;;;;;4.43;4.03;;;4.90;41.50;;;;;;10343988;28;20229;-72
2022/04/03 09:00:26;;;;;;;4.53;4.13;;;4.90;40.90;;;;;;10341460;28;20718;-72
2022/04/03 09:05:38;;;;;;;4.40;4.00;;;4.90;41.30;;;;;;10343172;28;20230;-73
2022/04/03 09:10:42;;;;;;;4.07;3.77;;;5.00;41.40;;;;;;10344664;28;20281;-72
2022/04/03 09:15:46;;;;;;;4.43;3.50;;;5.10;42.20;;;;;;10341388;28;20234;-72
2022/04/03 09:20:51;;;;;;;4.70;3.67;;;5.20;40.80;;;;;;10346422;28;20604;-72
2022/04/03 09:25:54;;;;;;;5.03;4.00;;;5.30;40.80;;;;;;10343996;28;20254;-72
2022/04/03 09:30:57;;;;;;;3.83;3.53;;;5.30;41.10;;;;;;10344465;28;20242;-72
2022/04/03 09:36:03;;;;;;;3.80;3.50;;;5.30;41.00;;;;;;10341170;28;20235;-72
2022/04/03 09:41:07;;;;;;;3.73;3.43;;;5.40;40.90;;;;;;10342753;28;20238;-72
2022/04/03 09:46:12;;;;;;;4.03;3.63;;;5.50;41.10;;;;;;10340946;28;20462;-72
2022/04/03 09:51:21;;;;;;;3.50;3.30;;;5.50;40.40;;;;;;10345181;28;20698;-72
2022/04/03 09:56:31;;;;;;;3.20;2.80;;;5.60;39.80;;;;;;10335500;28;20227;-72
2022/04/03 10:01:38;;;;;;;3.00;2.80;;;5.70;38.90;;;;;;10341332;28;20254;-72
2022/04/03 10:06:44;;;;;;;3.77;2.90;;;5.70;40.20;;;;;;10339584;28;20337;-72
2022/04/03 10:11:47;;;;;;;2.93;2.73;;;5.80;39.80;;;;;;10341008;28;20749;-72
2022/04/03 10:16:51;;;;;;;3.10;2.90;;;5.90;40.10;;;;;;10347426;28;20314;-72
2022/04/03 10:21:57;;;;;;;3.50;3.20;;;5.90;39.40;;;;;;10341753;28;20711;-72
2022/04/03 10:27:05;;;;;;;6.23;2.90;;;5.90;39.10;;;;;;10338963;28;20954;-73
2022/04/03 10:32:21;;;;;;;3.87;3.50;;;5.90;39.00;;;;;;10343086;28;20238;-73
2022/04/03 10:37:30;;;;;;;3.00;2.70;;;5.90;39.70;;;;;;10337640;28;20221;-73
2022/04/03 10:42:34;;;;;;;3.13;2.87;;;6.00;39.00;;;;;;10341852;28;20249;-73
2022/04/03 10:47:37;;;;;;;2.87;2.67;;;6.10;39.30;;;;;;10339509;28;20678;-73
2022/04/03 10:52:56;;;;;;;3.30;3.00;;;6.10;38.20;;;;;;10342000;28;20236;-73
2022/04/03 10:58:03;;;;;;;2.60;2.40;;;6.10;36.30;;;;;;10339239;28;20222;-73
2022/04/03 11:03:33;;;;;;;3.47;3.27;;;6.20;39.00;;;;;;10339372;28;20230;-73
2022/04/03 11:09:09;;;;;;;3.13;2.83;;;6.20;37.80;;;;;;10341583;28;20269;-73
2022/04/03 11:14:33;;;;;;;3.40;3.20;;;6.40;37.60;;;;;;10335560;28;20224;-74
2022/04/03 11:19:40;;;;;;;3.30;3.10;;;6.40;37.90;;;;;;10345161;28;20288;-74
2022/04/03 11:24:51;;;;;;;3.40;3.10;;;6.40;37.90;;;;;;10347612;28;20246;-74
2022/04/03 11:29:55;;;;;;;3.90;3.60;;;6.40;37.80;;;;;;10345866;28;20675;-76
2022/04/03 11:35:00;;;;;;;4.03;2.90;;;6.30;37.30;;;;;;10343939;28;20873;-71
2022/04/03 11:40:08;;;;;;;3.30;3.10;;;6.20;38.60;;;;;;10344879;28;20568;-73
2022/04/03 11:45:12;;;;;;;3.77;3.23;;;6.20;37.80;;;;;;10344292;28;20265;-74
2022/04/03 11:50:20;;;;;;;3.30;3.10;;;6.30;37.90;;;;;;10349392;28;20222;-73
2022/04/03 11:55:35;;;;;;;3.60;3.30;;;6.40;37.90;;;;;;10346399;28;20227;-73
2022/04/03 12:00:47;;;;;;;3.30;3.00;;;6.40;36.10;;;;;;10342823;28;20235;-73
2022/04/03 12:05:50;;;;;;;4.20;3.80;;;6.50;37.20;;;;;;10350274;28;20330;-74
2022/04/03 12:10:54;;;;;;;3.20;3.00;;;6.60;38.10;;;;;;10345417;28;20234;-74
2022/04/03 12:15:57;;;;;;;3.03;2.83;;;6.70;38.20;;;;;;10343090;28;20234;-74
2022/04/03 12:21:01;;;;;;;3.27;3.03;;;6.70;37.40;;;;;;10351864;28;20707;-73
2022/04/03 12:26:05;;;;;;;2.93;2.73;;;6.80;37.30;;;;;;10341083;28;20238;-73
2022/04/03 12:31:13;;;;;;;3.30;3.00;;;6.90;36.50;;;;;;10345500;28;20229;-73
2022/04/03 12:36:17;;;;;;;3.00;2.80;;;6.90;36.00;;;;;;10345280;28;20222;-73
2022/04/03 12:41:27;;;;;;;3.10;2.90;;;6.90;36.50;;;;;;10344094;28;20317;-73
2022/04/03 12:46:37;;;;;;;3.13;2.90;;;6.90;36.10;;;;;;10348058;28;20229;-73
2022/04/03 12:51:45;;;;;;;2.90;2.60;;;6.90;35.30;;;;;;10349882;28;21098;-73
2022/04/03 13:02:11;;;;;;;3.47;3.17;;;6.90;36.00;;;;;;10345438;28;20234;-74
2022/04/03 13:07:23;;;;;;;3.50;3.20;;;6.90;36.60;;;;;;10345307;28;20231;-73
2022/04/03 13:12:30;;;;;;;3.47;3.17;;;6.80;33.60;;;;;;10344652;28;20237;-74
2022/04/03 13:17:33;;;;;;;3.63;3.23;;;6.80;35.00;;;;;;10340585;28;20218;-73
2022/04/03 13:22:36;;;;;;;3.33;3.13;;;6.60;36.00;;;;;;10344952;28;20246;-74
2022/04/03 13:27:41;;;;;;;17.93;14.10;;;6.60;36.60;;;;;;10344505;28;20230;-74
2022/04/03 13:32:45;;;;;;;4.27;3.53;;;6.60;35.80;;;;;;10343677;28;20234;-74
2022/04/03 13:37:48;;;;;;;3.77;3.47;;;6.60;36.30;;;;;;10340051;28;20258;-73
2022/04/03 13:42:53;;;;;;;3.53;3.23;;;6.60;35.50;;;;;;10340068;28;20246;-74
2022/04/03 13:47:57;;;;;;;3.63;3.23;;;6.70;35.40;;;;;;10335692;28;20666;-73
2022/04/03 13:53:00;;;;;;;4.40;4.00;;;6.70;35.60;;;;;;10342288;28;20223;-73
2022/04/03 13:58:04;;;;;;;3.40;3.10;;;6.70;35.60;;;;;;10341603;28;20242;-73
2022/04/03 14:03:08;;;;;;;4.93;4.53;;;6.70;35.50;;;;;;10340004;28;20231;-73
2022/04/03 14:08:11;;;;;;;3.20;2.90;;;6.70;35.70;;;;;;10344919;28;20231;-73
2022/04/03 14:13:18;;;;;;;3.67;3.37;;;6.70;35.40;;;;;;10344523;28;20223;-73
2022/04/03 14:18:23;;;;;;;4.67;3.37;;;6.70;34.70;;;;;;10337718;28;21108;-69
2022/04/03 14:23:30;;;;;;;4.37;3.33;;;6.70;35.50;;;;;;10339675;28;20237;-72
2022/04/03 14:28:35;;;;;;;3.67;3.40;;;6.80;36.10;;;;;;10342085;28;20231;-74
2022/04/03 14:33:38;;;;;;;3.50;3.20;;;6.90;36.00;;;;;;10335853;28;20333;-73
2022/04/03 14:38:41;;;;;;;4.00;3.70;;;6.90;35.60;;;;;;10338466;28;20241;-73
2022/04/03 14:43:46;;;;;;;3.50;3.20;;;7.00;35.70;;;;;;10336164;28;20234;-74
2022/04/03 14:48:49;;;;;;;3.87;3.50;;;6.90;35.30;;;;;;10329066;28;20239;-73
2022/04/03 14:53:53;;;;;;;3.10;2.90;;;7.00;35.80;;;;;;10334433;28;20231;-73
2022/04/03 14:58:57;;;;;;;4.30;3.30;;;7.00;36.20;;;;;;10340438;28;20235;-73
2022/04/03 15:04:01;;;;;;;3.47;3.10;;;7.00;34.80;;;;;;10338275;28;20223;-73
2022/04/03 15:09:04;;;;;;;3.27;2.97;;;7.00;35.20;;;;;;10341561;28;20607;-74
2022/04/03 15:14:09;;;;;;;3.30;3.00;;;6.90;34.20;;;;;;10341619;28;20225;-74
2022/04/03 15:19:13;;;;;;;3.33;2.97;;;6.90;33.90;;;;;;10344682;28;20222;-73
2022/04/03 15:24:16;;;;;;;3.23;3.03;;;6.80;34.20;;;;;;10345018;28;20229;-73
2022/04/03 15:29:21;;;;;;;3.37;3.07;;;6.80;34.80;;;;;;10336167;28;20258;-74
2022/04/03 15:34:26;;;;;;;3.50;3.10;;;6.80;34.30;;;;;;10338901;28;20228;-73
2022/04/03 15:39:30;;;;;;;2.90;2.70;;;6.80;34.80;;;;;;10332699;28;20230;-72
2022/04/03 15:44:35;;;;;;;2.97;2.77;;;6.90;34.70;;;;;;10339921;28;20235;-74
2022/04/03 15:49:38;;;;;;;3.37;3.03;;;7.00;34.50;;;;;;10341240;28;20245;-74
2022/04/03 15:54:41;;;;;;;3.17;2.87;;;7.00;35.30;;;;;;10339325;28;20684;-74
2022/04/03 15:59:46;;;;;;;3.60;3.20;;;7.10;35.30;;;;;;10349904;28;20670;-74
2022/04/03 16:04:49;;;;;;;3.10;2.90;;;7.10;34.60;;;;;;10346717;28;20230;-74
2022/04/03 16:09:52;;;;;;;2.80;2.63;;;7.20;35.90;;;;;;10343108;28;20707;-73
2022/04/03 16:14:56;;;;;;;3.33;3.13;;;7.20;35.10;;;;;;10342418;28;20219;-73
2022/04/03 16:20:00;;;;;;;3.10;2.80;;;7.20;34.60;;;;;;10352383;28;20223;-74
2022/04/03 16:25:06;;;;;;;3.30;3.10;;;7.20;35.10;;;;;;10344722;28;20376;-74
2022/04/03 16:30:11;;;;;;;3.43;3.23;;;7.20;34.90;;;;;;10347257;28;20237;-74
2022/04/03 16:35:15;;;;;;;4.20;3.20;;;7.20;34.00;;;;;;10344566;28;20223;-74
2022/04/03 16:40:18;;;;;;;3.10;2.90;;;7.10;34.80;;;;;;10343448;28;20525;-74
2022/04/03 16:45:23;;;;;;;3.93;3.63;;;7.10;34.70;;;;;;10342786;28;20753;-75
2022/04/03 16:50:30;;;;;;;3.30;3.00;;;7.10;34.40;;;;;;10347732;28;20222;-74
2022/04/03 16:55:34;;;;;;;3.17;2.97;;;7.00;35.20;;;;;;10342998;28;20219;-74
2022/04/03 17:00:40;;;;;;;3.23;3.03;;;7.00;35.00;;;;;;10343636;28;20245;-74
2022/04/03 17:05:43;;;;;;;3.30;3.00;;;7.00;34.80;;;;;;10340245;28;20246;-74
2022/04/03 17:10:46;;;;;;;3.10;2.70;;;7.00;34.80;;;;;;10348392;28;20235;-74
2022/04/03 17:15:51;;;;;;;3.90;3.60;;;7.00;34.50;;;;;;10334798;28;20219;-74
2022/04/03 17:20:54;;;;;;;3.30;3.00;;;6.90;34.40;;;;;;10334966;28;20231;-74
2022/04/03 17:25:57;;;;;;;3.10;2.80;;;6.90;34.10;;;;;;10336960;28;20684;-73
2022/04/03 17:31:04;;;;;;;3.00;2.70;;;6.80;34.40;;;;;;10337746;28;20218;-74
2022/04/03 17:36:07;;;;;;;2.90;2.70;;;6.70;34.60;;;;;;10330795;28;20222;-74
2022/04/03 17:41:12;;;;;;;2.80;2.60;;;6.60;34.70;;;;;;10336504;28;20242;-75
2022/04/03 17:46:17;;;;;;;3.27;2.73;;;6.60;34.40;;;;;;10337135;28;20227;-74
2022/04/03 17:51:20;;;;;;;2.80;2.60;;;6.50;34.30;;;;;;10343471;28;20588;-74
2022/04/03 17:56:24;;;;;;;3.00;2.80;;;6.50;34.40;;;;;;10338518;28;20702;-74
2022/04/03 18:01:28;;;;;;;3.03;2.83;;;6.50;33.90;;;;;;10340560;28;20249;-73
2022/04/03 18:06:33;;;;;;;3.37;2.63;;;6.40;33.90;;;;;;10342063;28;20245;-73
2022/04/03 18:11:38;;;;;;;2.97;2.67;;;6.40;34.00;;;;;;10344887;28;20226;-73
2022/04/03 18:16:43;;;;;;;3.77;3.10;;;6.30;34.40;;;;;;10334304;28;20233;-73
2022/04/03 18:21:46;;;;;;;4.10;3.70;;;6.30;35.50;;;;;;10324802;28;20223;-74
2022/04/03 18:26:49;;;;;;;7.53;5.83;;;6.30;35.40;;;;;;10325483;28;20828;-73
2022/04/03 18:31:54;;;;;;;8.70;6.73;;;6.30;35.50;;;;;;10322730;28;20223;-73
2022/04/03 18:36:57;;;;;;;14.97;9.60;;;6.30;35.40;;;;;;10323016;28;20237;-73
2022/04/03 18:42:01;;;;;;;12.07;8.23;;;6.30;35.10;;;;;;10314644;28;20235;-73
2022/04/03 18:47:07;;;;;;;6.30;5.60;;;6.20;34.80;;;;;;10316849;28;20603;-73
2022/04/03 18:52:10;;;;;;;4.77;4.27;;;6.10;34.70;;;;;;10316945;28;20266;-73
2022/04/03 18:57:13;;;;;;;4.40;4.00;;;6.00;34.80;;;;;;10316841;28;20234;-73
2022/04/03 19:02:20;;;;;;;4.17;3.80;;;5.90;34.80;;;;;;10314624;28;20222;-73
2022/04/03 19:07:24;;;;;;;5.10;4.23;;;5.80;34.80;;;;;;10318642;28;20580;-74
2022/04/03 19:12:27;;;;;;;4.00;3.60;;;5.80;35.10;;;;;;10321494;28;20686;-73
2022/04/03 19:17:32;;;;;;;6.47;5.87;;;5.70;35.10;;;;;;10320203;28;20231;-73
2022/04/03 19:22:35;;;;;;;4.80;4.40;;;5.70;35.10;;;;;;10323555;28;20711;-74
2022/04/03 19:27:39;;;;;;;4.20;3.90;;;5.60;35.20;;;;;;10328985;28;20237;-74
2022/04/03 19:32:44;;;;;;;4.00;3.53;;;5.60;35.20;;;;;;10327411;28;20326;-74
2022/04/03 19:37:48;;;;;;;3.60;3.30;;;5.50;35.10;;;;;;10326445;28;20603;-74
2022/04/03 19:42:52;;;;;;;5.53;5.07;;;5.40;35.10;;;;;;10326933;28;20322;-74
2022/04/03 19:47:56;;;;;;;4.70;4.30;;;5.30;35.40;;;;;;10329936;28;20226;-73
2022/04/03 19:52:59;;;;;;;4.37;3.97;;;5.30;35.60;;;;;;10339263;28;20222;-73
2022/04/03 19:58:03;;;;;;;5.07;4.63;;;5.30;35.80;;;;;;10338305;28;20292;-74
2022/04/03 20:03:07;;;;;;;4.50;4.10;;;5.30;35.80;;;;;;10336891;28;20227;-73
2022/04/03 20:08:11;;;;;;;4.20;3.80;;;5.30;36.00;;;;;;10338672;28;20222;-73
2022/04/03 20:13:14;;;;;;;4.37;4.00;;;5.30;36.20;;;;;;10335145;28;20735;-73
2022/04/03 20:18:19;;;;;;;4.60;4.00;;;5.40;36.30;;;;;;10338931;28;20643;-72
2022/04/03 20:23:30;;;;;;;4.57;4.17;;;5.40;36.30;;;;;;10336580;28;20612;-72
2022/04/03 20:28:35;;;;;;;3.90;3.60;;;5.40;36.10;;;;;;10339234;28;20773;-73
2022/04/03 20:33:42;;;;;;;3.83;3.53;;;5.40;36.00;;;;;;10336215;28;20230;-73
2022/04/03 20:38:46;;;;;;;6.73;5.10;;;5.30;35.50;;;;;;10339065;28;20305;-71
2022/04/03 20:43:49;;;;;;;4.90;4.50;;;5.30;35.70;;;;;;10335081;28;20251;-71
2022/04/03 20:48:54;;;;;;;7.00;6.33;;;5.10;35.70;;;;;;10340156;28;20631;-71
2022/04/03 20:53:57;;;;;;;6.77;5.87;;;5.00;35.80;;;;;;10338259;28;20223;-71
2022/04/03 20:59:02;;;;;;;5.80;4.63;;;4.80;36.10;;;;;;10338276;28;20233;-72
2022/04/03 21:04:07;;;;;;;5.13;4.63;;;4.70;37.20;;;;;;10338478;28;20219;-72
2022/04/03 21:09:11;;;;;;;4.67;4.27;;;4.70;37.30;;;;;;10339977;28;20719;-72
2022/04/03 21:14:14;;;;;;;5.27;4.77;;;4.70;36.50;;;;;;10341696;28;20254;-71
2022/04/03 21:19:19;;;;;;;5.37;4.87;;;4.60;36.50;;;;;;10344934;28;20238;-71
2022/04/03 21:24:22;;;;;;;6.97;6.20;;;4.50;36.40;;;;;;10343428;28;20239;-71
2022/04/03 21:29:25;;;;;;;5.17;4.67;;;4.40;36.30;;;;;;10343946;28;20231;-72
2022/04/03 21:34:31;;;;;;;5.77;5.10;;;4.40;36.30;;;;;;10342670;28;20234;-72
2022/04/03 21:39:34;;;;;;;5.17;4.57;;;4.50;36.40;;;;;;10338988;28;20241;-72
2022/04/03 21:44:37;;;;;;;5.57;4.97;;;4.30;36.20;;;;;;10344778;28;20230;-71
2022/04/03 21:49:41;;;;;;;5.20;4.70;;;4.30;36.20;;;;;;10340078;28;20231;-72
2022/04/03 21:54:45;;;;;;;5.40;4.90;;;4.20;36.10;;;;;;10342928;28;20472;-72
2022/04/03 21:59:48;;;;;;;4.93;4.50;;;4.10;36.10;;;;;;10336646;28;20241;-72
2022/04/03 22:04:52;;;;;;;5.60;5.10;;;4.10;36.10;;;;;;10339188;28;20237;-71
2022/04/03 22:09:55;;;;;;;5.50;5.00;;;4.00;36.00;;;;;;10338585;28;20622;-72
2022/04/03 22:14:58;;;;;;;5.73;5.13;;;4.00;36.00;;;;;;10343300;28;20229;-72
2022/04/03 22:20:04;;;;;;;5.33;4.83;;;4.00;36.10;;;;;;10340068;28;21070;-74
2022/04/03 22:25:08;;;;;;;5.00;4.60;;;4.00;36.00;;;;;;10339258;28;20234;-72
2022/04/03 22:30:11;;;;;;;5.07;4.63;;;3.90;35.90;;;;;;10334482;28;20241;-72
2022/04/03 22:35:16;;;;;;;4.23;3.90;;;3.90;36.00;;;;;;10340404;28;20226;-72
2022/04/03 22:40:20;;;;;;;5.23;4.73;;;4.00;36.50;;;;;;10336857;28;20227;-72
2022/04/03 22:45:23;;;;;;;4.97;4.53;;;3.90;36.60;;;;;;10337702;28;20226;-72
2022/04/03 22:50:29;;;;;;;4.93;4.43;;;3.90;36.30;;;;;;10340644;28;21184;-72
2022/04/03 22:55:33;;;;;;;4.27;3.87;;;3.90;36.10;;;;;;10335022;28;20227;-72
2022/04/03 23:00:36;;;;;;;6.60;4.87;;;3.70;36.10;;;;;;10337949;28;20249;-72
2022/04/03 23:05:41;;;;;;;5.30;4.80;;;3.70;36.20;;;;;;10338393;28;20239;-72
2022/04/03 23:10:44;;;;;;;4.90;4.50;;;3.60;36.10;;;;;;10335996;28;20594;-72
2022/04/03 23:15:48;;;;;;;4.87;4.47;;;3.60;36.30;;;;;;10345334;28;20235;-72
2022/04/03 23:20:52;;;;;;;5.50;4.97;;;3.50;36.40;;;;;;10345674;28;20235;-72
2022/04/03 23:25:55;;;;;;;5.80;5.13;;;3.40;36.40;;;;;;10350632;28;20240;-72
2022/04/03 23:30:58;;;;;;;5.63;5.13;;;3.40;36.50;;;;;;10346844;28;20223;-72
2022/04/03 23:36:04;;;;;;;5.37;4.90;;;3.30;36.50;;;;;;10350392;28;20226;-73
2022/04/03 23:41:07;;;;;;;4.77;4.37;;;3.20;36.60;;;;;;10344962;28;20227;-73
2022/04/03 23:46:10;;;;;;;5.17;4.67;;;3.20;36.70;;;;;;10345567;28;20227;-72
2022/04/03 23:51:15;;;;;;;5.10;4.60;;;3.10;37.00;;;;;;10349981;28;20722;-72
2022/04/03 23:56:18;;;;;;;6.47;4.63;;;3.20;37.20;;;;;;10345348;28;20233;-72
